sensor_id;sensor_type;location;lat;lon;timestamp;temperature;humidity
39067;DHT22;24821;51.988;6.020;2023-02-01T00:01:13;5.80;99.90
39067;DHT22;24821;51.988;6.020;2023-02-01T00:03:39;5.80;99.90
39067;DHT22;24821;51.988;6.020;2023-02-01T00:06:05;5.80;99.90
39067;DHT22;24821;51.988;6.020;2023-02-01T00:08:30;5.90;99.90
39067;DHT22;24821;51.988;6.020;2023-02-01T00:11:14;5.90;99.90
39067;DHT22;24821;51.988;6.020;2023-02-01T00:13:41;5.90;99.90
39067;DHT22;24821;51.988;6.020;2023-02-01T00:16:09;5.90;99.90
39067;DHT22;24821;51.988;6.020;2023-02-01T00:18:35;5.90;99.90
39067;DHT22;24821;51.988;6.020;2023-02-01T00:21:01;5.90;99.90
39067;DHT22;24821;51.988;6.020;2023-02-01T00:23:27;5.90;99.90
39067;DHT22;24821;51.988;6.020;2023-02-01T00:25:53;5.90;99.90
39067;DHT22;24821;51.988;6.020;2023-02-01T00:28:18;5.90;99.90
39067;DHT22;24821;51.988;6.020;2023-02-01T00:30:44;5.80;99.90
39067;DHT22;24821;51.988;6.020;2023-02-01T00:33:09;5.90;99.90
39067;DHT22;24821;51.988;6.020;2023-02-01T00:35:35;5.90;99.90
39067;DHT22;24821;51.988;6.020;2023-02-01T00:38:01;5.80;99.90
39067;DHT22;24821;51.988;6.020;2023-02-01T00:40:27;5.80;99.90
39067;DHT22;24821;51.988;6.020;2023-02-01T00:42:53;5.80;99.90
39067;DHT22;24821;51.988;6.020;2023-02-01T00:45:19;5.80;99.90
39067;DHT22;24821;51.988;6.020;2023-02-01T00:47:44;5.80;99.90
39067;DHT22;24821;51.988;6.020;2023-02-01T00:50:10;5.80;99.90
39067;DHT22;24821;51.988;6.020;2023-02-01T00:52:35;5.80;99.90
39067;DHT22;24821;51.988;6.020;2023-02-01T00:55:01;5.90;99.90
39067;DHT22;24821;51.988;6.020;2023-02-01T00:57:27;5.90;99.90
39067;DHT22;24821;51.988;6.020;2023-02-01T00:59:52;5.90;99.90
39067;DHT22;24821;51.988;6.020;2023-02-01T01:02:18;5.90;99.90
39067;DHT22;24821;51.988;6.020;2023-02-01T01:04:44;5.90;99.90
39067;DHT22;24821;51.988;6.020;2023-02-01T01:07:09;5.90;99.90
39067;DHT22;24821;51.988;6.020;2023-02-01T01:09:35;5.90;99.90
39067;DHT22;24821;51.988;6.020;2023-02-01T01:12:00;5.90;99.90
39067;DHT22;24821;51.988;6.020;2023-02-01T01:14:28;5.90;99.90
39067;DHT22;24821;51.988;6.020;2023-02-01T01:16:54;5.90;99.90
39067;DHT22;24821;51.988;6.020;2023-02-01T01:19:20;5.90;99.90
39067;DHT22;24821;51.988;6.020;2023-02-01T01:21:45;5.80;99.90
39067;DHT22;24821;51.988;6.020;2023-02-01T01:24:11;5.80;99.90
39067;DHT22;24821;51.988;6.020;2023-02-01T01:26:37;5.80;99.90
39067;DHT22;24821;51.988;6.020;2023-02-01T01:29:03;5.80;99.90
39067;DHT22;24821;51.988;6.020;2023-02-01T01:31:30;5.80;99.90
39067;DHT22;24821;51.988;6.020;2023-02-01T01:33:57;5.70;99.90
39067;DHT22;24821;51.988;6.020;2023-02-01T01:36:24;5.70;99.90
39067;DHT22;24821;51.988;6.020;2023-02-01T01:38:50;5.70;99.90
39067;DHT22;24821;51.988;6.020;2023-02-01T01:41:20;5.70;99.90
39067;DHT22;24821;51.988;6.020;2023-02-01T01:43:56;5.70;99.90
39067;DHT22;24821;51.988;6.020;2023-02-01T01:46:31;5.70;99.90
39067;DHT22;24821;51.988;6.020;2023-02-01T01:49:17;5.70;99.90
39067;DHT22;24821;51.988;6.020;2023-02-01T01:51:52;5.80;99.90
39067;DHT22;24821;51.988;6.020;2023-02-01T01:54:25;5.80;99.90
39067;DHT22;24821;51.988;6.020;2023-02-01T01:56:53;5.80;99.90
39067;DHT22;24821;51.988;6.020;2023-02-01T01:59:22;5.70;99.90
39067;DHT22;24821;51.988;6.020;2023-02-01T02:01:48;5.70;99.90
39067;DHT22;24821;51.988;6.020;2023-02-01T02:04:14;5.70;99.90
39067;DHT22;24821;51.988;6.020;2023-02-01T02:06:45;5.80;99.90
39067;DHT22;24821;51.988;6.020;2023-02-01T02:09:14;5.80;99.90
39067;DHT22;24821;51.988;6.020;2023-02-01T02:11:40;5.80;99.90
39067;DHT22;24821;51.988;6.020;2023-02-01T02:14:08;5.80;99.90
39067;DHT22;24821;51.988;6.020;2023-02-01T02:22:35;5.90;99.90
39067;DHT22;24821;51.988;6.020;2023-02-01T02:42:14;5.80;99.90
39067;DHT22;24821;51.988;6.020;2023-02-01T02:45:07;5.80;99.90
39067;DHT22;24821;51.988;6.020;2023-02-01T02:48:34;5.80;99.90
39067;DHT22;24821;51.988;6.020;2023-02-01T02:51:05;5.80;99.90
39067;DHT22;24821;51.988;6.020;2023-02-01T02:54:03;5.90;99.90
39067;DHT22;24821;51.988;6.020;2023-02-01T02:56:49;5.80;99.90
39067;DHT22;24821;51.988;6.020;2023-02-01T02:59:35;5.80;99.90
39067;DHT22;24821;51.988;6.020;2023-02-01T03:02:20;5.70;99.90
39067;DHT22;24821;51.988;6.020;2023-02-01T03:05:05;5.70;99.90
39067;DHT22;24821;51.988;6.020;2023-02-01T03:11:00;5.80;99.90
39067;DHT22;24821;51.988;6.020;2023-02-01T03:13:57;5.80;99.90
39067;DHT22;24821;51.988;6.020;2023-02-01T03:16:32;5.80;99.90
39067;DHT22;24821;51.988;6.020;2023-02-01T03:19:27;5.80;99.90
39067;DHT22;24821;51.988;6.020;2023-02-01T03:21:59;5.80;99.90
39067;DHT22;24821;51.988;6.020;2023-02-01T03:24:30;5.80;99.90
39067;DHT22;24821;51.988;6.020;2023-02-01T03:27:12;5.80;99.90
39067;DHT22;24821;51.988;6.020;2023-02-01T03:32:21;5.80;99.90
39067;DHT22;24821;51.988;6.020;2023-02-01T03:34:47;5.70;99.90
39067;DHT22;24821;51.988;6.020;2023-02-01T03:37:19;5.80;99.90
39067;DHT22;24821;51.988;6.020;2023-02-01T03:40:13;5.80;99.90
39067;DHT22;24821;51.988;6.020;2023-02-01T03:42:44;5.80;99.90
39067;DHT22;24821;51.988;6.020;2023-02-01T03:45:20;5.80;99.90
39067;DHT22;24821;51.988;6.020;2023-02-01T03:47:49;5.80;99.90
39067;DHT22;24821;51.988;6.020;2023-02-01T03:50:22;5.80;99.90
39067;DHT22;24821;51.988;6.020;2023-02-01T03:53:07;5.90;99.90
39067;DHT22;24821;51.988;6.020;2023-02-01T03:55:35;5.90;99.90
39067;DHT22;24821;51.988;6.020;2023-02-01T03:58:14;5.90;99.90
39067;DHT22;24821;51.988;6.020;2023-02-01T04:00:40;5.90;99.90
39067;DHT22;24821;51.988;6.020;2023-02-01T04:03:09;5.90;99.90
39067;DHT22;24821;51.988;6.020;2023-02-01T04:05:35;5.90;99.90
39067;DHT22;24821;51.988;6.020;2023-02-01T04:08:01;5.90;99.90
39067;DHT22;24821;51.988;6.020;2023-02-01T04:10:27;5.80;99.90
39067;DHT22;24821;51.988;6.020;2023-02-01T04:12:53;5.80;99.90
39067;DHT22;24821;51.988;6.020;2023-02-01T04:15:18;5.80;99.90
39067;DHT22;24821;51.988;6.020;2023-02-01T04:17:44;5.80;99.90
39067;DHT22;24821;51.988;6.020;2023-02-01T04:20:10;5.80;99.90
39067;DHT22;24821;51.988;6.020;2023-02-01T04:22:36;5.80;99.90
39067;DHT22;24821;51.988;6.020;2023-02-01T04:25:02;5.70;99.90
39067;DHT22;24821;51.988;6.020;2023-02-01T04:27:27;5.80;99.90
39067;DHT22;24821;51.988;6.020;2023-02-01T04:29:53;5.80;99.90
39067;DHT22;24821;51.988;6.020;2023-02-01T04:32:19;5.80;99.90
39067;DHT22;24821;51.988;6.020;2023-02-01T04:34:45;5.80;99.90
39067;DHT22;24821;51.988;6.020;2023-02-01T04:37:10;5.80;99.90
39067;DHT22;24821;51.988;6.020;2023-02-01T04:39:36;5.80;99.90
39067;DHT22;24821;51.988;6.020;2023-02-01T04:42:02;5.80;99.90
39067;DHT22;24821;51.988;6.020;2023-02-01T04:44:27;5.80;99.90
39067;DHT22;24821;51.988;6.020;2023-02-01T04:46:53;5.90;99.90
39067;DHT22;24821;51.988;6.020;2023-02-01T04:49:18;6.00;99.90
39067;DHT22;24821;51.988;6.020;2023-02-01T04:51:46;6.00;99.90
39067;DHT22;24821;51.988;6.020;2023-02-01T04:54:12;6.10;99.90
39067;DHT22;24821;51.988;6.020;2023-02-01T04:56:38;6.20;99.90
39067;DHT22;24821;51.988;6.020;2023-02-01T04:59:04;6.20;99.90
39067;DHT22;24821;51.988;6.020;2023-02-01T05:01:29;6.40;99.90
39067;DHT22;24821;51.988;6.020;2023-02-01T05:03:55;6.30;99.90
39067;DHT22;24821;51.988;6.020;2023-02-01T05:06:21;6.30;99.90
39067;DHT22;24821;51.988;6.020;2023-02-01T05:08:47;6.30;99.90
39067;DHT22;24821;51.988;6.020;2023-02-01T05:11:13;6.40;99.90
39067;DHT22;24821;51.988;6.020;2023-02-01T05:13:57;6.40;99.90
39067;DHT22;24821;51.988;6.020;2023-02-01T05:16:23;6.50;99.90
39067;DHT22;24821;51.988;6.020;2023-02-01T05:18:48;6.50;99.90
39067;DHT22;24821;51.988;6.020;2023-02-01T05:21:14;6.60;99.90
39067;DHT22;24821;51.988;6.020;2023-02-01T05:23:39;6.60;99.90
39067;DHT22;24821;51.988;6.020;2023-02-01T05:26:24;6.70;99.90
39067;DHT22;24821;51.988;6.020;2023-02-01T05:28:50;6.70;99.90
39067;DHT22;24821;51.988;6.020;2023-02-01T05:31:16;6.80;99.90
39067;DHT22;24821;51.988;6.020;2023-02-01T05:33:42;6.80;99.90
39067;DHT22;24821;51.988;6.020;2023-02-01T05:36:09;6.80;99.90
39067;DHT22;24821;51.988;6.020;2023-02-01T05:38:34;6.80;99.90
39067;DHT22;24821;51.988;6.020;2023-02-01T05:41:00;6.90;99.90
39067;DHT22;24821;51.988;6.020;2023-02-01T05:43:25;6.90;99.90
39067;DHT22;24821;51.988;6.020;2023-02-01T05:45:52;6.90;99.90
39067;DHT22;24821;51.988;6.020;2023-02-01T05:48:17;7.00;99.90
39067;DHT22;24821;51.988;6.020;2023-02-01T05:50:43;7.00;99.90
39067;DHT22;24821;51.988;6.020;2023-02-01T05:53:08;7.00;99.90
39067;DHT22;24821;51.988;6.020;2023-02-01T05:55:34;7.00;99.90
39067;DHT22;24821;51.988;6.020;2023-02-01T05:58:00;7.00;99.90
39067;DHT22;24821;51.988;6.020;2023-02-01T06:00:25;7.00;99.90
39067;DHT22;24821;51.988;6.020;2023-02-01T06:02:51;7.10;99.90
39067;DHT22;24821;51.988;6.020;2023-02-01T06:05:16;7.10;99.90
39067;DHT22;24821;51.988;6.020;2023-02-01T06:07:42;7.10;99.90
39067;DHT22;24821;51.988;6.020;2023-02-01T06:10:09;7.10;99.90
39067;DHT22;24821;51.988;6.020;2023-02-01T06:12:35;7.10;99.90
39067;DHT22;24821;51.988;6.020;2023-02-01T06:15:00;7.10;99.90
39067;DHT22;24821;51.988;6.020;2023-02-01T06:17:26;7.10;99.90
39067;DHT22;24821;51.988;6.020;2023-02-01T06:19:52;7.10;99.90
39067;DHT22;24821;51.988;6.020;2023-02-01T06:22:17;7.20;99.90
39067;DHT22;24821;51.988;6.020;2023-02-01T06:24:43;7.10;99.90
39067;DHT22;24821;51.988;6.020;2023-02-01T06:27:09;7.20;99.90
39067;DHT22;24821;51.988;6.020;2023-02-01T06:29:35;7.20;99.90
39067;DHT22;24821;51.988;6.020;2023-02-01T06:32:01;7.20;99.90
39067;DHT22;24821;51.988;6.020;2023-02-01T06:34:26;7.20;99.90
39067;DHT22;24821;51.988;6.020;2023-02-01T06:36:52;7.30;99.90
39067;DHT22;24821;51.988;6.020;2023-02-01T06:39:18;7.30;99.90
39067;DHT22;24821;51.988;6.020;2023-02-01T06:41:47;7.30;99.90
39067;DHT22;24821;51.988;6.020;2023-02-01T06:44:14;7.30;99.90
39067;DHT22;24821;51.988;6.020;2023-02-01T06:46:40;7.30;99.90
39067;DHT22;24821;51.988;6.020;2023-02-01T06:49:05;7.30;99.90
39067;DHT22;24821;51.988;6.020;2023-02-01T06:51:31;7.30;99.90
39067;DHT22;24821;51.988;6.020;2023-02-01T06:53:57;7.30;99.90
39067;DHT22;24821;51.988;6.020;2023-02-01T06:56:23;7.30;99.90
39067;DHT22;24821;51.988;6.020;2023-02-01T06:58:49;7.30;99.90
39067;DHT22;24821;51.988;6.020;2023-02-01T07:01:15;7.30;99.90
39067;DHT22;24821;51.988;6.020;2023-02-01T07:03:41;7.30;99.90
39067;DHT22;24821;51.988;6.020;2023-02-01T07:06:08;7.30;99.90
39067;DHT22;24821;51.988;6.020;2023-02-01T07:08:36;7.30;99.90
39067;DHT22;24821;51.988;6.020;2023-02-01T07:11:06;7.30;99.90
39067;DHT22;24821;51.988;6.020;2023-02-01T07:13:32;7.30;99.90
39067;DHT22;24821;51.988;6.020;2023-02-01T07:16:00;7.30;99.90
39067;DHT22;24821;51.988;6.020;2023-02-01T07:18:27;7.30;99.90
39067;DHT22;24821;51.988;6.020;2023-02-01T07:20:53;7.30;99.90
39067;DHT22;24821;51.988;6.020;2023-02-01T07:23:19;7.20;99.90
39067;DHT22;24821;51.988;6.020;2023-02-01T07:25:46;7.20;99.90
39067;DHT22;24821;51.988;6.020;2023-02-01T07:28:11;7.20;99.90
39067;DHT22;24821;51.988;6.020;2023-02-01T07:30:37;7.10;99.90
39067;DHT22;24821;51.988;6.020;2023-02-01T07:33:02;7.10;99.90
39067;DHT22;24821;51.988;6.020;2023-02-01T07:35:28;7.10;99.90
39067;DHT22;24821;51.988;6.020;2023-02-01T07:37:54;7.10;99.90
39067;DHT22;24821;51.988;6.020;2023-02-01T07:40:20;7.00;99.90
39067;DHT22;24821;51.988;6.020;2023-02-01T07:42:50;7.00;99.90
39067;DHT22;24821;51.988;6.020;2023-02-01T07:45:16;7.00;99.90
39067;DHT22;24821;51.988;6.020;2023-02-01T07:47:41;7.00;99.90
39067;DHT22;24821;51.988;6.020;2023-02-01T07:50:07;7.00;99.90
39067;DHT22;24821;51.988;6.020;2023-02-01T07:52:33;7.00;99.90
39067;DHT22;24821;51.988;6.020;2023-02-01T07:54:58;7.00;99.90
39067;DHT22;24821;51.988;6.020;2023-02-01T07:57:24;6.90;99.90
39067;DHT22;24821;51.988;6.020;2023-02-01T07:59:49;6.90;99.90
39067;DHT22;24821;51.988;6.020;2023-02-01T08:02:33;6.90;99.90
39067;DHT22;24821;51.988;6.020;2023-02-01T08:04:59;6.90;99.90
39067;DHT22;24821;51.988;6.020;2023-02-01T08:07:25;7.00;99.90
39067;DHT22;24821;51.988;6.020;2023-02-01T08:09:50;6.90;99.90
39067;DHT22;24821;51.988;6.020;2023-02-01T08:12:16;7.00;99.90
39067;DHT22;24821;51.988;6.020;2023-02-01T08:14:41;7.00;99.90
39067;DHT22;24821;51.988;6.020;2023-02-01T08:17:07;7.10;99.90
39067;DHT22;24821;51.988;6.020;2023-02-01T08:19:32;7.10;99.90
39067;DHT22;24821;51.988;6.020;2023-02-01T08:21:58;7.10;99.90
39067;DHT22;24821;51.988;6.020;2023-02-01T08:24:24;7.20;99.90
39067;DHT22;24821;51.988;6.020;2023-02-01T08:26:50;7.20;99.90
39067;DHT22;24821;51.988;6.020;2023-02-01T08:29:16;7.30;99.90
39067;DHT22;24821;51.988;6.020;2023-02-01T08:31:41;7.30;99.90
39067;DHT22;24821;51.988;6.020;2023-02-01T08:34:08;7.20;99.90
39067;DHT22;24821;51.988;6.020;2023-02-01T08:36:35;7.20;99.90
39067;DHT22;24821;51.988;6.020;2023-02-01T08:39:01;7.20;99.90
39067;DHT22;24821;51.988;6.020;2023-02-01T08:41:30;7.30;99.90
39067;DHT22;24821;51.988;6.020;2023-02-01T08:43:57;7.30;99.90
39067;DHT22;24821;51.988;6.020;2023-02-01T08:46:23;7.30;99.90
39067;DHT22;24821;51.988;6.020;2023-02-01T08:48:49;7.40;99.90
39067;DHT22;24821;51.988;6.020;2023-02-01T08:51:17;7.40;99.90
39067;DHT22;24821;51.988;6.020;2023-02-01T08:53:43;7.50;99.90
39067;DHT22;24821;51.988;6.020;2023-02-01T08:56:11;7.60;99.90
39067;DHT22;24821;51.988;6.020;2023-02-01T08:58:37;7.70;99.90
39067;DHT22;24821;51.988;6.020;2023-02-01T09:01:08;7.70;99.90
39067;DHT22;24821;51.988;6.020;2023-02-01T09:03:34;7.80;99.90
39067;DHT22;24821;51.988;6.020;2023-02-01T09:06:05;7.90;99.90
39067;DHT22;24821;51.988;6.020;2023-02-01T09:08:31;7.90;99.90
39067;DHT22;24821;51.988;6.020;2023-02-01T09:11:05;8.00;99.90
39067;DHT22;24821;51.988;6.020;2023-02-01T09:13:31;7.90;99.90
39067;DHT22;24821;51.988;6.020;2023-02-01T09:15:58;7.90;99.90
39067;DHT22;24821;51.988;6.020;2023-02-01T09:18:25;7.90;99.90
39067;DHT22;24821;51.988;6.020;2023-02-01T09:20:51;7.90;99.90
39067;DHT22;24821;51.988;6.020;2023-02-01T09:23:16;7.90;99.90
39067;DHT22;24821;51.988;6.020;2023-02-01T09:25:42;8.00;99.90
39067;DHT22;24821;51.988;6.020;2023-02-01T09:28:07;8.00;99.90
39067;DHT22;24821;51.988;6.020;2023-02-01T09:30:35;8.10;99.90
39067;DHT22;24821;51.988;6.020;2023-02-01T09:33:00;8.20;99.90
39067;DHT22;24821;51.988;6.020;2023-02-01T09:35:26;8.30;99.90
39067;DHT22;24821;51.988;6.020;2023-02-01T09:37:55;8.30;99.90
39067;DHT22;24821;51.988;6.020;2023-02-01T09:40:21;8.40;99.90
39067;DHT22;24821;51.988;6.020;2023-02-01T09:43:17;8.40;99.90
39067;DHT22;24821;51.988;6.020;2023-02-01T09:45:55;8.40;99.90
39067;DHT22;24821;51.988;6.020;2023-02-01T09:48:28;8.40;99.90
39067;DHT22;24821;51.988;6.020;2023-02-01T09:50:57;8.50;99.90
39067;DHT22;24821;51.988;6.020;2023-02-01T09:53:37;8.50;99.90
39067;DHT22;24821;51.988;6.020;2023-02-01T09:58:39;8.60;99.90
39067;DHT22;24821;51.988;6.020;2023-02-01T10:01:17;8.50;99.90
39067;DHT22;24821;51.988;6.020;2023-02-01T10:03:44;8.50;99.90
39067;DHT22;24821;51.988;6.020;2023-02-01T10:11:41;8.50;99.90
39067;DHT22;24821;51.988;6.020;2023-02-01T10:16:55;8.40;99.90
39067;DHT22;24821;51.988;6.020;2023-02-01T10:22:11;8.40;99.90
39067;DHT22;24821;51.988;6.020;2023-02-01T10:24:50;8.40;99.90
39067;DHT22;24821;51.988;6.020;2023-02-01T10:27:40;8.40;99.90
39067;DHT22;24821;51.988;6.020;2023-02-01T10:30:21;8.40;99.90
39067;DHT22;24821;51.988;6.020;2023-02-01T10:32:49;8.40;99.90
39067;DHT22;24821;51.988;6.020;2023-02-01T10:35:29;8.30;99.90
39067;DHT22;24821;51.988;6.020;2023-02-01T10:38:00;8.30;99.90
39067;DHT22;24821;51.988;6.020;2023-02-01T10:40:27;8.30;99.90
39067;DHT22;24821;51.988;6.020;2023-02-01T10:42:57;8.20;99.90
39067;DHT22;24821;51.988;6.020;2023-02-01T10:45:27;8.10;99.90
39067;DHT22;24821;51.988;6.020;2023-02-01T10:47:55;8.10;99.90
39067;DHT22;24821;51.988;6.020;2023-02-01T10:53:01;8.00;99.90
39067;DHT22;24821;51.988;6.020;2023-02-01T10:55:48;8.00;99.90
39067;DHT22;24821;51.988;6.020;2023-02-01T10:58:29;8.00;99.90
39067;DHT22;24821;51.988;6.020;2023-02-01T11:00:58;7.90;99.90
39067;DHT22;24821;51.988;6.020;2023-02-01T11:06:01;7.80;99.90
39067;DHT22;24821;51.988;6.020;2023-02-01T11:08:27;7.70;99.90
39067;DHT22;24821;51.988;6.020;2023-02-01T11:10:59;7.70;99.90
39067;DHT22;24821;51.988;6.020;2023-02-01T11:13:29;7.70;99.90
39067;DHT22;24821;51.988;6.020;2023-02-01T11:15:56;7.70;99.90
39067;DHT22;24821;51.988;6.020;2023-02-01T11:18:29;7.60;99.90
39067;DHT22;24821;51.988;6.020;2023-02-01T11:20:55;7.70;99.90
39067;DHT22;24821;51.988;6.020;2023-02-01T11:23:28;7.70;99.90
39067;DHT22;24821;51.988;6.020;2023-02-01T11:26:00;7.70;99.90
39067;DHT22;24821;51.988;6.020;2023-02-01T11:28:30;7.70;99.90
39067;DHT22;24821;51.988;6.020;2023-02-01T11:31:00;7.70;99.90
39067;DHT22;24821;51.988;6.020;2023-02-01T11:33:32;7.70;99.90
39067;DHT22;24821;51.988;6.020;2023-02-01T11:36:06;7.70;99.90
39067;DHT22;24821;51.988;6.020;2023-02-01T11:38:33;7.70;99.90
39067;DHT22;24821;51.988;6.020;2023-02-01T11:41:31;7.70;99.90
39067;DHT22;24821;51.988;6.020;2023-02-01T11:43:59;7.80;99.90
39067;DHT22;24821;51.988;6.020;2023-02-01T11:46:31;7.80;99.90
39067;DHT22;24821;51.988;6.020;2023-02-01T11:49:15;7.80;99.90
39067;DHT22;24821;51.988;6.020;2023-02-01T11:54:54;7.80;99.90
39067;DHT22;24821;51.988;6.020;2023-02-01T12:02:57;7.80;99.90
39067;DHT22;24821;51.988;6.020;2023-02-01T12:10:34;8.00;99.90
39067;DHT22;24821;51.988;6.020;2023-02-01T12:18:41;8.10;99.90
39067;DHT22;24821;51.988;6.020;2023-02-01T12:32:46;8.30;99.90
39067;DHT22;24821;51.988;6.020;2023-02-01T12:35:38;8.30;99.90
39067;DHT22;24821;51.988;6.020;2023-02-01T12:38:14;8.30;99.90
39067;DHT22;24821;51.988;6.020;2023-02-01T12:43:23;8.40;99.90
39067;DHT22;24821;51.988;6.020;2023-02-01T12:46:01;8.50;99.90
39067;DHT22;24821;51.988;6.020;2023-02-01T12:48:38;8.50;99.90
39067;DHT22;24821;51.988;6.020;2023-02-01T12:51:13;8.60;99.90
39067;DHT22;24821;51.988;6.020;2023-02-01T12:53:53;8.60;99.90
39067;DHT22;24821;51.988;6.020;2023-02-01T12:56:43;8.60;99.90
39067;DHT22;24821;51.988;6.020;2023-02-01T12:59:31;8.70;99.90
39067;DHT22;24821;51.988;6.020;2023-02-01T13:02:08;8.70;99.90
39067;DHT22;24821;51.988;6.020;2023-02-01T13:07:47;8.70;99.90
39067;DHT22;24821;51.988;6.020;2023-02-01T13:13:20;8.60;99.90
39067;DHT22;24821;51.988;6.020;2023-02-01T13:15:51;8.60;99.90
39067;DHT22;24821;51.988;6.020;2023-02-01T13:18:22;8.60;99.90
39067;DHT22;24821;51.988;6.020;2023-02-01T13:21:08;8.70;99.90
39067;DHT22;24821;51.988;6.020;2023-02-01T13:23:37;8.60;99.90
39067;DHT22;24821;51.988;6.020;2023-02-01T13:26:03;8.60;99.90
39067;DHT22;24821;51.988;6.020;2023-02-01T13:40:16;8.70;99.90
39067;DHT22;24821;51.988;6.020;2023-02-01T13:42:58;8.70;99.90
39067;DHT22;24821;51.988;6.020;2023-02-01T13:45:30;8.80;99.90
39067;DHT22;24821;51.988;6.020;2023-02-01T13:48:01;8.70;99.90
39067;DHT22;24821;51.988;6.020;2023-02-01T13:50:34;8.80;99.90
39067;DHT22;24821;51.988;6.020;2023-02-01T13:53:11;8.80;99.90
39067;DHT22;24821;51.988;6.020;2023-02-01T13:55:45;8.80;99.90
39067;DHT22;24821;51.988;6.020;2023-02-01T14:03:52;8.90;99.90
39067;DHT22;24821;51.988;6.020;2023-02-01T14:11:52;8.80;99.90
39067;DHT22;24821;51.988;6.020;2023-02-01T14:19:27;8.80;99.90
39067;DHT22;24821;51.988;6.020;2023-02-01T14:22:00;8.80;99.90
39067;DHT22;24821;51.988;6.020;2023-02-01T14:24:32;8.80;99.90
39067;DHT22;24821;51.988;6.020;2023-02-01T14:29:41;8.90;99.90
39067;DHT22;24821;51.988;6.020;2023-02-01T14:32:15;8.90;99.90
39067;DHT22;24821;51.988;6.020;2023-02-01T14:42:44;8.90;99.90
39067;DHT22;24821;51.988;6.020;2023-02-01T14:50:44;8.90;99.90
39067;DHT22;24821;51.988;6.020;2023-02-01T14:58:37;8.90;99.90
39067;DHT22;24821;51.988;6.020;2023-02-01T15:04:05;8.80;99.90
39067;DHT22;24821;51.988;6.020;2023-02-01T15:11:57;8.90;99.90
39067;DHT22;24821;51.988;6.020;2023-02-01T15:14:23;9.00;99.90
39067;DHT22;24821;51.988;6.020;2023-02-01T15:16:48;8.90;99.90
39067;DHT22;24821;51.988;6.020;2023-02-01T15:19:20;8.90;99.90
39067;DHT22;24821;51.988;6.020;2023-02-01T15:21:49;9.00;99.90
39067;DHT22;24821;51.988;6.020;2023-02-01T15:26:45;8.90;99.90
39067;DHT22;24821;51.988;6.020;2023-02-01T15:29:13;8.90;99.90
39067;DHT22;24821;51.988;6.020;2023-02-01T15:31:45;8.80;99.90
39067;DHT22;24821;51.988;6.020;2023-02-01T15:34:11;8.80;99.90
39067;DHT22;24821;51.988;6.020;2023-02-01T15:36:37;8.70;99.90
39067;DHT22;24821;51.988;6.020;2023-02-01T15:39:24;8.60;99.90
39067;DHT22;24821;51.988;6.020;2023-02-01T15:42:08;8.50;99.90
39067;DHT22;24821;51.988;6.020;2023-02-01T15:44:43;7.90;99.90
39067;DHT22;24821;51.988;6.020;2023-02-01T15:47:21;7.50;99.90
39067;DHT22;24821;51.988;6.020;2023-02-01T15:49:52;7.20;99.90
39067;DHT22;24821;51.988;6.020;2023-02-01T15:52:34;7.10;99.90
39067;DHT22;24821;51.988;6.020;2023-02-01T15:55:03;7.10;99.90
39067;DHT22;24821;51.988;6.020;2023-02-01T15:57:35;7.00;99.90
39067;DHT22;24821;51.988;6.020;2023-02-01T16:00:05;7.00;99.90
39067;DHT22;24821;51.988;6.020;2023-02-01T16:02:37;7.10;99.90
39067;DHT22;24821;51.988;6.020;2023-02-01T16:05:28;7.10;99.90
39067;DHT22;24821;51.988;6.020;2023-02-01T16:10:41;7.10;99.90
39067;DHT22;24821;51.988;6.020;2023-02-01T16:13:06;7.10;99.90
39067;DHT22;24821;51.988;6.020;2023-02-01T16:15:32;7.10;99.90
39067;DHT22;24821;51.988;6.020;2023-02-01T16:17:58;7.10;99.90
39067;DHT22;24821;51.988;6.020;2023-02-01T16:20:24;7.20;99.90
39067;DHT22;24821;51.988;6.020;2023-02-01T16:22:49;7.20;99.90
39067;DHT22;24821;51.988;6.020;2023-02-01T16:25:15;7.30;99.90
39067;DHT22;24821;51.988;6.020;2023-02-01T16:27:41;7.30;99.90
39067;DHT22;24821;51.988;6.020;2023-02-01T16:30:07;7.40;99.90
39067;DHT22;24821;51.988;6.020;2023-02-01T16:32:35;7.40;99.90
39067;DHT22;24821;51.988;6.020;2023-02-01T16:35:34;7.50;99.90
39067;DHT22;24821;51.988;6.020;2023-02-01T16:38:15;7.60;99.90
39067;DHT22;24821;51.988;6.020;2023-02-01T16:40:42;7.60;99.90
39067;DHT22;24821;51.988;6.020;2023-02-01T16:43:19;7.60;99.90
39067;DHT22;24821;51.988;6.020;2023-02-01T16:45:46;7.70;99.90
39067;DHT22;24821;51.988;6.020;2023-02-01T16:48:23;7.70;99.90
39067;DHT22;24821;51.988;6.020;2023-02-01T16:50:52;7.90;99.90
39067;DHT22;24821;51.988;6.020;2023-02-01T16:53:19;8.00;99.90
39067;DHT22;24821;51.988;6.020;2023-02-01T16:55:45;8.10;99.90
39067;DHT22;24821;51.988;6.020;2023-02-01T16:58:13;8.20;99.90
39067;DHT22;24821;51.988;6.020;2023-02-01T17:00:38;8.20;99.90
39067;DHT22;24821;51.988;6.020;2023-02-01T17:03:04;8.20;99.90
39067;DHT22;24821;51.988;6.020;2023-02-01T17:05:31;8.30;99.90
39067;DHT22;24821;51.988;6.020;2023-02-01T17:08:02;8.30;99.90
39067;DHT22;24821;51.988;6.020;2023-02-01T17:10:30;8.40;99.90
39067;DHT22;24821;51.988;6.020;2023-02-01T17:12:56;8.40;99.90
39067;DHT22;24821;51.988;6.020;2023-02-01T17:15:29;8.40;99.90
39067;DHT22;24821;51.988;6.020;2023-02-01T17:17:56;8.40;99.90
39067;DHT22;24821;51.988;6.020;2023-02-01T17:20:24;8.40;99.90
39067;DHT22;24821;51.988;6.020;2023-02-01T17:22:52;8.40;99.90
39067;DHT22;24821;51.988;6.020;2023-02-01T17:25:19;8.40;99.90
39067;DHT22;24821;51.988;6.020;2023-02-01T17:27:46;8.20;99.90
39067;DHT22;24821;51.988;6.020;2023-02-01T17:30:13;8.00;99.90
39067;DHT22;24821;51.988;6.020;2023-02-01T17:32:39;7.70;99.90
39067;DHT22;24821;51.988;6.020;2023-02-01T17:35:29;7.50;99.90
39067;DHT22;24821;51.988;6.020;2023-02-01T17:37:56;7.40;99.90
39067;DHT22;24821;51.988;6.020;2023-02-01T17:40:22;7.20;99.90
39067;DHT22;24821;51.988;6.020;2023-02-01T17:42:49;7.20;99.90
39067;DHT22;24821;51.988;6.020;2023-02-01T17:47:47;7.30;99.90
39067;DHT22;24821;51.988;6.020;2023-02-01T17:50:13;7.30;99.90
39067;DHT22;24821;51.988;6.020;2023-02-01T17:52:39;7.30;99.90
39067;DHT22;24821;51.988;6.020;2023-02-01T17:55:18;7.30;99.90
39067;DHT22;24821;51.988;6.020;2023-02-01T17:57:44;7.30;99.90
39067;DHT22;24821;51.988;6.020;2023-02-01T18:00:10;7.30;99.90
39067;DHT22;24821;51.988;6.020;2023-02-01T18:02:38;7.40;99.90
39067;DHT22;24821;51.988;6.020;2023-02-01T18:05:13;7.50;99.90
39067;DHT22;24821;51.988;6.020;2023-02-01T18:07:39;7.70;99.90
39067;DHT22;24821;51.988;6.020;2023-02-01T18:10:05;7.80;99.90
39067;DHT22;24821;51.988;6.020;2023-02-01T18:12:32;7.90;99.90
39067;DHT22;24821;51.988;6.020;2023-02-01T18:14:58;8.00;99.90
39067;DHT22;24821;51.988;6.020;2023-02-01T18:17:23;8.00;99.90
39067;DHT22;24821;51.988;6.020;2023-02-01T18:19:49;8.10;99.90
39067;DHT22;24821;51.988;6.020;2023-02-01T18:22:18;8.10;99.90
39067;DHT22;24821;51.988;6.020;2023-02-01T18:24:44;8.20;99.90
39067;DHT22;24821;51.988;6.020;2023-02-01T18:27:09;8.30;99.90
39067;DHT22;24821;51.988;6.020;2023-02-01T18:29:35;8.30;99.90
39067;DHT22;24821;51.988;6.020;2023-02-01T18:32:01;8.40;99.90
39067;DHT22;24821;51.988;6.020;2023-02-01T18:34:27;8.40;99.90